Time;durP1;ratioP1;P1;durP2;ratioP2;P2;SDS_P1;SDS_P2;PMS_P1;PMS_P2;Temp;Humidity;BMP_temperature;BMP_pressure;BME280_temperature;BME280_humidity;BME280_pressure;Samples;Min_cycle;Max_cycle;Signal;HPM_P1;HPM_P2
2023/03/08 00:00:41;;;;;;;3.13;3.03;;;2.10;90.80;;;;;;5036223;28;20256;-68
2023/03/08 00:03:12;;;;;;;0.60;0.60;;;2.10;91.00;;;;;;5054963;28;20239;-67
2023/03/08 00:05:38;;;;;;;2.58;2.38;;;2.20;91.00;;;;;;5054599;28;20235;-67
2023/03/08 00:08:03;;;;;;;1.57;0.67;;;2.30;90.80;;;;;;5054252;28;20227;-67
2023/03/08 00:10:29;;;;;;;2.70;1.73;;;2.20;90.60;;;;;;5036436;28;20516;-68
2023/03/08 00:12:55;;;;;;;0.30;0.30;;;2.20;90.60;;;;;;5054387;28;20174;-68
2023/03/08 00:15:20;;;;;;;1.50;1.43;;;2.10;90.60;;;;;;5054341;28;20173;-68
2023/03/08 00:17:46;;;;;;;0.60;0.60;;;2.10;90.70;;;;;;5054528;28;20166;-67
2023/03/08 00:20:13;;;;;;;0.77;0.77;;;2.10;90.60;;;;;;5035974;28;21032;-67
2023/03/08 00:22:40;;;;;;;3.40;3.20;;;2.20;90.60;;;;;;5054138;28;20177;-67
2023/03/08 00:25:10;;;;;;;0.98;0.98;;;2.30;90.40;;;;;;5053876;28;20197;-67
2023/03/08 00:27:37;;;;;;;5.97;0.65;;;2.30;90.20;;;;;;5053852;28;20608;-67
2023/03/08 00:30:05;;;;;;;3.05;1.15;;;2.30;90.00;;;;;;5054155;28;20204;-67
2023/03/08 00:32:30;;;;;;;8.27;0.95;;;2.30;89.80;;;;;;5053707;28;20167;-67
2023/03/08 00:34:56;;;;;;;2.50;1.17;;;2.30;90.00;;;;;;5053679;28;20180;-67
2023/03/08 00:37:22;;;;;;;0.30;0.30;;;2.30;90.10;;;;;;5053793;28;20439;-67
2023/03/08 00:39:52;;;;;;;0.80;0.80;;;2.40;89.80;;;;;;5035702;28;20524;-67
2023/03/08 00:42:18;;;;;;;1.45;0.70;;;2.50;89.40;;;;;;5053939;28;20177;-67
2023/03/08 00:44:44;;;;;;;0.80;0.80;;;2.50;88.80;;;;;;5053508;28;20186;-67
2023/03/08 00:47:09;;;;;;;5.10;1.50;;;2.70;88.90;;;;;;5053887;28;20279;-68
2023/03/08 00:49:35;;;;;;;0.53;0.53;;;2.70;87.50;;;;;;5053889;28;20204;-67
2023/03/08 00:52:01;;;;;;;2.33;2.00;;;2.70;87.30;;;;;;5053776;28;20162;-67
2023/03/08 00:54:28;;;;;;;3.20;3.10;;;2.80;86.80;;;;;;5053360;28;20170;-67
2023/03/08 00:56:53;;;;;;;2.30;2.03;;;2.70;86.20;;;;;;5053752;28;20396;-67
2023/03/08 00:59:19;;;;;;;0.90;0.90;;;2.80;86.00;;;;;;5053075;28;20170;-67
2023/03/08 01:01:45;;;;;;;0.37;0.37;;;2.80;85.70;;;;;;5053398;28;20200;-67
2023/03/08 01:04:11;;;;;;;0.90;0.90;;;2.80;85.80;;;;;;5035528;28;20268;-67
2023/03/08 01:06:38;;;;;;;0.50;0.50;;;2.80;85.80;;;;;;5053278;28;20209;-68
2023/03/08 01:09:03;;;;;;;0.60;0.60;;;2.60;85.50;;;;;;5053177;28;20258;-67
2023/03/08 01:11:30;;;;;;;0.53;0.53;;;2.60;86.20;;;;;;5053564;28;20185;-67
2023/03/08 01:13:55;;;;;;;1.40;1.40;;;2.60;86.70;;;;;;5053226;28;20491;-67
2023/03/08 01:16:27;;;;;;;1.23;1.23;;;2.60;85.90;;;;;;5053729;28;20273;-67
2023/03/08 01:18:53;;;;;;;1.95;1.33;;;2.40;85.80;;;;;;5053173;28;20252;-68
2023/03/08 01:21:20;;;;;;;0.43;0.43;;;2.40;86.60;;;;;;5053177;28;20187;-67
2023/03/08 01:23:46;;;;;;;1.58;1.48;;;2.40;86.60;;;;;;5053183;28;20636;-67
2023/03/08 01:26:14;;;;;;;1.85;1.75;;;2.50;86.20;;;;;;5053379;28;20261;-68
2023/03/08 01:28:41;;;;;;;1.33;1.33;;;2.60;86.10;;;;;;5053176;28;20175;-67
2023/03/08 01:31:11;;;;;;;0.75;0.73;;;2.50;86.40;;;;;;5053616;28;20194;-67
2023/03/08 01:33:38;;;;;;;0.60;0.60;;;2.50;87.60;;;;;;5052844;28;20527;-67
2023/03/08 01:36:05;;;;;;;1.55;1.40;;;2.60;88.30;;;;;;5053282;28;20188;-67
2023/03/08 01:38:31;;;;;;;1.25;1.25;;;2.60;87.60;;;;;;5053218;28;20216;-67
2023/03/08 01:40:58;;;;;;;16.53;3.97;;;2.70;86.90;;;;;;5053278;28;20236;-67
2023/03/08 01:43:29;;;;;;;0.50;0.50;;;2.70;87.00;;;;;;5053303;28;20545;-67
2023/03/08 01:46:06;;;;;;;0.98;0.50;;;2.70;86.80;;;;;;5053284;28;20206;-67
2023/03/08 01:48:56;;;;;;;0.38;0.38;;;2.60;86.70;;;;;;5053132;28;20165;-67
2023/03/08 01:51:35;;;;;;;0.40;0.40;;;2.40;86.80;;;;;;5052793;28;20239;-68
2023/03/08 01:54:05;;;;;;;1.73;1.58;;;2.30;88.10;;;;;;5052748;28;20184;-68
2023/03/08 01:56:32;;;;;;;1.90;1.80;;;2.20;88.70;;;;;;5053064;28;20173;-67
2023/03/08 01:58:59;;;;;;;3.42;3.28;;;2.20;88.40;;;;;;5052954;28;20189;-67
2023/03/08 02:01:24;;;;;;;0.40;0.40;;;2.20;88.80;;;;;;5052785;28;20631;-67
2023/03/08 02:03:51;;;;;;;1.13;1.13;;;2.20;89.00;;;;;;5052719;28;20268;-67
2023/03/08 02:06:18;;;;;;;0.40;0.40;;;2.20;89.50;;;;;;5053193;28;20697;-67
2023/03/08 02:08:44;;;;;;;0.82;0.82;;;2.10;89.80;;;;;;5035382;28;20177;-67
2023/03/08 02:11:11;;;;;;;1.40;1.40;;;2.00;90.20;;;;;;5053975;28;20703;-67
2023/03/08 02:13:37;;;;;;;0.40;0.40;;;2.00;90.30;;;;;;5056321;28;20402;-68
2023/03/08 02:16:04;;;;;;;1.63;1.53;;;2.00;90.40;;;;;;5056546;28;20207;-67
2023/03/08 02:18:30;;;;;;;0.40;0.40;;;1.80;90.60;;;;;;5056746;28;20407;-67
2023/03/08 02:20:56;;;;;;;1.60;0.60;;;1.70;91.00;;;;;;5056226;28;20279;-67
2023/03/08 02:23:23;;;;;;;2.15;1.95;;;1.80;91.20;;;;;;5056074;28;20301;-68
2023/03/08 02:25:49;;;;;;;1.13;1.13;;;1.80;91.20;;;;;;5056201;28;20199;-67
2023/03/08 02:28:15;;;;;;;2.50;1.13;;;1.90;91.40;;;;;;5056368;28;20183;-67
2023/03/08 02:30:41;;;;;;;0.93;0.93;;;2.00;91.30;;;;;;5056417;28;20193;-67
2023/03/08 02:33:06;;;;;;;0.60;0.60;;;2.00;91.30;;;;;;5056175;28;20173;-67
2023/03/08 02:35:32;;;;;;;1.47;1.47;;;2.10;91.20;;;;;;5056521;28;20176;-67
2023/03/08 02:37:58;;;;;;;1.20;1.20;;;2.10;90.70;;;;;;5056128;28;20592;-67
2023/03/08 02:40:24;;;;;;;0.70;0.70;;;2.20;90.80;;;;;;5056023;28;20681;-67
2023/03/08 02:42:49;;;;;;;1.53;1.43;;;2.30;90.70;;;;;;5055876;28;20769;-67
2023/03/08 02:45:15;;;;;;;2.17;2.07;;;2.20;90.60;;;;;;5055715;28;20977;-67
2023/03/08 02:47:41;;;;;;;1.37;1.27;;;2.20;90.90;;;;;;5055992;28;20176;-67
2023/03/08 02:50:07;;;;;;;0.73;0.70;;;2.30;91.10;;;;;;5055954;28;20234;-67
2023/03/08 02:52:33;;;;;;;1.27;1.25;;;2.30;91.00;;;;;;5055712;28;20515;-67
2023/03/08 02:54:58;;;;;;;5.57;1.20;;;2.30;90.90;;;;;;5055495;28;20290;-67
2023/03/08 02:57:24;;;;;;;0.63;0.60;;;2.40;90.80;;;;;;5055610;28;20260;-68
2023/03/08 02:59:50;;;;;;;3.90;1.43;;;2.30;90.70;;;;;;5037787;28;20670;-67
2023/03/08 03:02:15;;;;;;;2.60;0.80;;;2.30;90.70;;;;;;5055964;28;20236;-67
2023/03/08 03:04:41;;;;;;;3.20;3.00;;;2.30;90.80;;;;;;5055250;28;20587;-67
2023/03/08 03:07:07;;;;;;;0.30;0.30;;;2.40;90.80;;;;;;5055871;28;20181;-67
2023/03/08 03:09:34;;;;;;;0.83;0.80;;;2.30;90.70;;;;;;5055595;28;20228;-68
2023/03/08 03:11:59;;;;;;;2.15;2.05;;;2.40;90.90;;;;;;5055620;28;20174;-68
2023/03/08 03:14:28;;;;;;;2.33;2.20;;;2.50;90.90;;;;;;5055128;28;20660;-67
2023/03/08 03:16:54;;;;;;;0.30;0.30;;;2.50;90.90;;;;;;5055717;28;20184;-67
2023/03/08 03:19:20;;;;;;;3.57;3.33;;;2.40;91.00;;;;;;5055379;28;20609;-68
2023/03/08 03:21:45;;;;;;;1.55;1.45;;;2.40;91.10;;;;;;5055315;28;20212;-67
2023/03/08 03:24:12;;;;;;;4.73;2.43;;;2.40;91.20;;;;;;5054526;28;20186;-67
2023/03/08 03:26:38;;;;;;;1.02;1.02;;;2.50;90.90;;;;;;5054962;28;20221;-67
2023/03/08 03:29:04;;;;;;;0.87;0.87;;;2.50;90.50;;;;;;5055339;28;20181;-67
2023/03/08 03:31:30;;;;;;;0.73;0.73;;;2.50;90.50;;;;;;5055405;28;20429;-68
2023/03/08 03:33:56;;;;;;;1.90;1.80;;;2.60;90.60;;;;;;5054884;28;20176;-67
2023/03/08 03:36:21;;;;;;;0.73;0.73;;;2.60;90.70;;;;;;5054808;28;20514;-67
2023/03/08 03:38:48;;;;;;;0.97;0.97;;;2.70;90.70;;;;;;5054936;28;20184;-67
2023/03/08 03:41:17;;;;;;;2.38;2.28;;;2.70;90.60;;;;;;5055031;28;20435;-67
2023/03/08 03:43:43;;;;;;;1.00;1.00;;;2.70;90.60;;;;;;5054912;28;20188;-67
2023/03/08 03:46:13;;;;;;;7.90;2.15;;;2.70;90.60;;;;;;5055006;28;20206;-67
2023/03/08 03:48:39;;;;;;;0.40;0.40;;;2.80;90.60;;;;;;5054947;28;20622;-68
2023/03/08 03:51:09;;;;;;;3.90;0.98;;;2.70;90.50;;;;;;5054645;28;20185;-67
2023/03/08 03:53:34;;;;;;;2.08;1.98;;;2.70;90.50;;;;;;5054623;28;20187;-67
2023/03/08 03:56:09;;;;;;;0.90;0.90;;;2.70;90.70;;;;;;5054457;28;20241;-67
2023/03/08 03:58:35;;;;;;;1.42;1.42;;;2.80;90.70;;;;;;5054946;28;20170;-67
2023/03/08 04:01:07;;;;;;;2.93;2.83;;;2.80;90.60;;;;;;5054804;28;20210;-68
2023/03/08 04:03:32;;;;;;;1.35;1.25;;;2.70;90.70;;;;;;5054086;28;20684;-67
2023/03/08 04:06:10;;;;;;;0.80;0.80;;;2.70;90.90;;;;;;5054575;28;20292;-67
2023/03/08 04:08:41;;;;;;;0.45;0.45;;;2.80;90.70;;;;;;5054613;28;20173;-67
2023/03/08 04:11:11;;;;;;;1.77;1.70;;;2.80;90.30;;;;;;5036175;28;20276;-67
2023/03/08 04:13:38;;;;;;;1.63;1.52;;;2.90;90.30;;;;;;5054446;28;20171;-67
2023/03/08 04:16:20;;;;;;;3.10;3.00;;;2.80;90.40;;;;;;5054515;28;20232;-67
2023/03/08 04:18:46;;;;;;;2.17;0.90;;;2.90;90.70;;;;;;5054405;28;20174;-68
2023/03/08 04:21:13;;;;;;;4.65;1.42;;;2.90;90.80;;;;;;5054348;28;20553;-67
2023/03/08 04:23:39;;;;;;;0.88;0.88;;;2.80;90.80;;;;;;5054189;28;20261;-67
2023/03/08 04:26:05;;;;;;;0.40;0.40;;;2.80;90.70;;;;;;5054126;28;20284;-67
2023/03/08 04:28:32;;;;;;;0.88;0.82;;;2.80;90.80;;;;;;5053904;28;20447;-68
2023/03/08 04:30:59;;;;;;;2.47;1.60;;;2.80;90.90;;;;;;5053947;28;20184;-67
2023/03/08 04:33:24;;;;;;;0.95;0.60;;;2.80;90.80;;;;;;5053802;28;20174;-67
2023/03/08 04:35:50;;;;;;;1.50;1.40;;;2.80;90.90;;;;;;5054163;28;20197;-67
2023/03/08 04:38:16;;;;;;;2.73;2.37;;;2.80;90.80;;;;;;5054349;28;20794;-67
2023/03/08 04:41:04;;;;;;;1.10;1.00;;;2.90;90.90;;;;;;5053775;28;20435;-67
2023/03/08 04:43:33;;;;;;;0.90;0.90;;;2.90;91.00;;;;;;5053666;28;20153;-67
2023/03/08 04:46:00;;;;;;;0.65;0.65;;;3.00;91.00;;;;;;5035899;28;20209;-67
2023/03/08 04:48:26;;;;;;;8.55;3.70;;;3.10;90.90;;;;;;5053943;28;20166;-67
2023/03/08 04:50:57;;;;;;;3.83;3.53;;;3.10;90.70;;;;;;5053424;28;20761;-67
2023/03/08 04:53:23;;;;;;;0.73;0.73;;;3.10;90.80;;;;;;5053932;28;20442;-67
2023/03/08 04:55:49;;;;;;;1.48;1.30;;;3.20;90.90;;;;;;5053634;28;20174;-67
2023/03/08 04:58:15;;;;;;;1.40;1.40;;;3.20;90.80;;;;;;5053653;28;20310;-67
2023/03/08 05:00:40;;;;;;;1.27;1.27;;;3.20;90.80;;;;;;5053568;28;20427;-68
2023/03/08 05:03:06;;;;;;;1.17;1.07;;;3.20;90.90;;;;;;5053844;28;20493;-67
2023/03/08 05:05:32;;;;;;;1.57;1.47;;;3.20;91.00;;;;;;5053710;28;20898;-67
2023/03/08 05:07:58;;;;;;;2.63;2.00;;;3.30;91.20;;;;;;5053503;28;20459;-67
2023/03/08 05:10:24;;;;;;;4.65;4.45;;;3.30;91.20;;;;;;5053380;28;20658;-68
2023/03/08 05:12:50;;;;;;;0.53;0.53;;;3.40;91.00;;;;;;5053797;28;20188;-68
2023/03/08 05:15:16;;;;;;;1.50;1.50;;;3.30;90.80;;;;;;5053130;28;20443;-68
2023/03/08 05:17:42;;;;;;;0.50;0.50;;;3.30;90.80;;;;;;5053119;28;20639;-67
2023/03/08 05:20:08;;;;;;;2.10;1.90;;;3.30;90.80;;;;;;5053484;28;20208;-67
2023/03/08 05:22:34;;;;;;;0.40;0.40;;;3.20;91.10;;;;;;5053141;28;20535;-67
2023/03/08 05:24:59;;;;;;;3.80;1.80;;;3.20;91.30;;;;;;5053046;28;20197;-67
2023/03/08 05:27:25;;;;;;;5.23;1.90;;;3.30;91.40;;;;;;5053374;28;20169;-68
2023/03/08 05:29:51;;;;;;;0.97;0.83;;;3.20;91.30;;;;;;5053235;28;20178;-67
2023/03/08 05:32:16;;;;;;;3.58;3.38;;;3.20;91.00;;;;;;5052990;28;20171;-68
2023/03/08 05:34:42;;;;;;;1.07;1.07;;;3.20;90.80;;;;;;5052772;28;20189;-67
2023/03/08 05:37:08;;;;;;;1.13;0.93;;;3.10;90.70;;;;;;5053585;28;20220;-67
2023/03/08 05:39:33;;;;;;;0.63;0.57;;;3.10;91.00;;;;;;5053098;28;20631;-67
2023/03/08 05:41:59;;;;;;;3.90;1.93;;;3.10;91.40;;;;;;5053232;28;20166;-68
2023/03/08 05:44:24;;;;;;;0.73;0.73;;;3.10;91.50;;;;;;5052902;28;20228;-68
2023/03/08 05:46:51;;;;;;;0.50;0.50;;;3.20;91.40;;;;;;5055828;28;20229;-68
2023/03/08 05:49:17;;;;;;;0.40;0.40;;;3.20;91.60;;;;;;5057416;28;20182;-67
2023/03/08 05:51:42;;;;;;;0.87;0.87;;;3.20;91.40;;;;;;5056869;28;20173;-67
2023/03/08 05:54:08;;;;;;;3.47;1.93;;;3.20;91.30;;;;;;5057060;28;20171;-67
2023/03/08 05:56:34;;;;;;;4.93;3.13;;;3.30;91.10;;;;;;5057032;28;20404;-67
2023/03/08 05:58:59;;;;;;;0.90;0.90;;;3.30;91.00;;;;;;5039123;28;20522;-67
2023/03/08 06:01:26;;;;;;;5.00;3.93;;;3.30;90.90;;;;;;5056701;28;20213;-67
2023/03/08 06:03:55;;;;;;;7.43;3.83;;;3.30;91.00;;;;;;5056348;28;20175;-67
2023/03/08 06:06:22;;;;;;;0.85;0.85;;;3.20;91.00;;;;;;5056682;28;20202;-69
2023/03/08 06:08:48;;;;;;;1.13;1.05;;;3.30;91.00;;;;;;5056619;28;20185;-70
2023/03/08 06:11:14;;;;;;;4.47;4.17;;;3.30;90.70;;;;;;5056822;28;20190;-70
2023/03/08 06:13:40;;;;;;;0.50;0.50;;;3.50;90.70;;;;;;5056146;28;20404;-70
2023/03/08 06:16:06;;;;;;;0.70;0.70;;;3.40;90.50;;;;;;5056897;28;20408;-71
2023/03/08 06:18:34;;;;;;;1.75;1.65;;;3.40;90.60;;;;;;5056920;28;20189;-70
2023/03/08 06:21:02;;;;;;;1.35;1.35;;;3.40;90.80;;;;;;5056566;28;20200;-70
2023/03/08 06:23:30;;;;;;;1.35;1.35;;;3.40;91.00;;;;;;5056096;28;20171;-70
2023/03/08 06:25:56;;;;;;;4.72;3.10;;;3.40;91.10;;;;;;5056106;28;20312;-70
2023/03/08 06:28:23;;;;;;;2.83;2.58;;;3.50;90.90;;;;;;5056508;28;20182;-70
2023/03/08 06:30:49;;;;;;;2.97;2.75;;;3.60;90.80;;;;;;5056579;28;20233;-70
2023/03/08 06:33:20;;;;;;;0.82;0.82;;;3.60;90.80;;;;;;5055944;28;20236;-70
2023/03/08 06:36:21;;;;;;;1.67;0.98;;;3.40;90.60;;;;;;5056310;28;20170;-70
2023/03/08 06:38:47;;;;;;;4.10;2.65;;;3.40;90.80;;;;;;4995011;28;20191;-70
2023/03/08 06:41:14;;;;;;;0.70;0.70;;;3.50;90.80;;;;;;5044171;28;20603;-70
2023/03/08 06:43:40;;;;;;;1.38;1.38;;;3.60;90.70;;;;;;5056158;28;20194;-70
2023/03/08 06:46:12;;;;;;;1.60;1.60;;;3.60;90.70;;;;;;5055789;28;20202;-70
2023/03/08 06:48:39;;;;;;;2.08;1.98;;;3.70;90.60;;;;;;5056015;28;20174;-69
2023/03/08 06:51:05;;;;;;;0.93;0.93;;;3.70;90.60;;;;;;5056193;28;20273;-70
2023/03/08 06:53:31;;;;;;;2.23;2.10;;;3.70;91.00;;;;;;5056122;28;20194;-70
2023/03/08 06:55:57;;;;;;;2.63;2.50;;;3.70;91.40;;;;;;5055842;28;20657;-70
2023/03/08 06:58:23;;;;;;;2.30;1.07;;;3.70;92.20;;;;;;5055067;28;20178;-70
2023/03/08 07:00:49;;;;;;;0.60;0.60;;;3.60;93.20;;;;;;5055371;28;20502;-71
2023/03/08 07:03:14;;;;;;;0.63;0.63;;;3.70;94.10;;;;;;5055735;28;20185;-70
2023/03/08 07:05:40;;;;;;;2.00;1.50;;;3.80;94.50;;;;;;5055877;28;20441;-71
2023/03/08 07:08:07;;;;;;;1.50;1.13;;;3.90;94.30;;;;;;5055934;28;20257;-70
2023/03/08 07:10:33;;;;;;;0.38;0.38;;;3.80;94.50;;;;;;5055535;28;20194;-70
2023/03/08 07:12:59;;;;;;;1.85;1.70;;;3.90;95.10;;;;;;5038184;28;20174;-68
2023/03/08 07:15:25;;;;;;;0.60;0.60;;;3.90;95.90;;;;;;5037423;28;20185;-68
2023/03/08 07:17:54;;;;;;;0.60;0.60;;;3.80;96.40;;;;;;5055460;28;20253;-68
2023/03/08 07:20:21;;;;;;;2.83;2.05;;;3.90;96.70;;;;;;5055016;28;20779;-68
2023/03/08 07:22:47;;;;;;;1.48;1.08;;;4.00;96.70;;;;;;5037270;28;20170;-68
2023/03/08 07:25:15;;;;;;;1.10;1.10;;;3.90;96.70;;;;;;5055022;28;20658;-68
2023/03/08 07:27:41;;;;;;;1.02;1.02;;;4.10;96.80;;;;;;5055225;28;20405;-68
2023/03/08 07:30:10;;;;;;;0.65;0.65;;;4.00;97.00;;;;;;5055162;28;20194;-69
2023/03/08 07:32:38;;;;;;;0.40;0.40;;;4.10;97.30;;;;;;5055150;28;20166;-68
2023/03/08 07:35:05;;;;;;;3.42;2.75;;;4.20;97.60;;;;;;5054938;28;20257;-68
2023/03/08 07:37:31;;;;;;;13.50;3.72;;;4.30;97.70;;;;;;5055065;28;20170;-70
2023/03/08 07:39:57;;;;;;;1.17;1.17;;;4.50;97.50;;;;;;5055174;28;20252;-70
2023/03/08 07:42:22;;;;;;;1.23;1.13;;;4.70;97.40;;;;;;5054729;28;20168;-71
2023/03/08 07:44:48;;;;;;;1.73;1.63;;;4.90;97.10;;;;;;5054683;28;20201;-69
2023/03/08 07:47:13;;;;;;;1.07;0.97;;;4.70;96.90;;;;;;5055074;28;20170;-69
2023/03/08 07:49:39;;;;;;;1.33;1.33;;;4.80;97.20;;;;;;5054862;28;20189;-67
2023/03/08 07:52:05;;;;;;;0.40;0.40;;;5.00;97.20;;;;;;5052323;28;20518;-67
2023/03/08 07:54:31;;;;;;;0.80;0.80;;;5.00;97.10;;;;;;5054378;28;20173;-67
2023/03/08 07:56:56;;;;;;;1.63;1.63;;;5.10;97.10;;;;;;5054399;28;20181;-67
2023/03/08 07:59:22;;;;;;;0.87;0.87;;;5.00;97.00;;;;;;5054302;28;20525;-67
2023/03/08 08:01:48;;;;;;;0.43;0.43;;;4.90;97.10;;;;;;5053962;28;20190;-67
2023/03/08 08:04:14;;;;;;;1.03;0.73;;;5.10;97.00;;;;;;5054256;28;20404;-67
2023/03/08 08:06:40;;;;;;;0.70;0.70;;;5.20;96.60;;;;;;5054432;28;20202;-67
2023/03/08 08:09:07;;;;;;;1.23;1.23;;;5.40;96.30;;;;;;5054065;28;20486;-67
2023/03/08 08:11:33;;;;;;;0.60;0.60;;;5.40;96.30;;;;;;5054063;28;20515;-67
2023/03/08 08:13:59;;;;;;;2.97;1.80;;;5.30;96.50;;;;;;5054188;28;20183;-67
2023/03/08 08:16:25;;;;;;;0.88;0.88;;;5.20;96.60;;;;;;5054183;28;20174;-67
2023/03/08 08:18:53;;;;;;;0.50;0.50;;;5.20;96.90;;;;;;5054215;28;20174;-67
2023/03/08 08:21:19;;;;;;;1.25;1.15;;;5.20;97.30;;;;;;5053808;28;20186;-67
2023/03/08 08:23:45;;;;;;;0.77;0.77;;;5.20;97.40;;;;;;5053734;28;20183;-67
2023/03/08 08:26:20;;;;;;;1.05;1.05;;;5.20;97.40;;;;;;5053817;28;20206;-67
2023/03/08 08:28:49;;;;;;;1.20;1.10;;;5.20;97.50;;;;;;5054093;28;20189;-67
2023/03/08 08:31:18;;;;;;;0.40;0.40;;;5.10;97.90;;;;;;5035817;28;20675;-67
2023/03/08 08:33:44;;;;;;;0.90;0.90;;;5.10;98.20;;;;;;5035805;28;20665;-67
2023/03/08 08:36:19;;;;;;;0.40;0.40;;;5.20;98.80;;;;;;5053917;28;20166;-67
2023/03/08 08:38:45;;;;;;;0.40;0.40;;;5.30;98.70;;;;;;5053973;28;20393;-68
2023/03/08 08:41:14;;;;;;;0.82;0.82;;;5.50;98.70;;;;;;5053589;28;20201;-67
2023/03/08 08:43:40;;;;;;;0.40;0.40;;;5.50;98.60;;;;;;5053507;28;20642;-67
2023/03/08 08:46:05;;;;;;;0.90;0.90;;;5.60;98.60;;;;;;5053635;28;20650;-68
2023/03/08 08:48:32;;;;;;;0.40;0.40;;;5.70;98.60;;;;;;5053640;28;20174;-68
2023/03/08 08:50:58;;;;;;;0.40;0.40;;;5.80;98.70;;;;;;5053525;28;20274;-67
2023/03/08 08:53:24;;;;;;;0.50;0.50;;;6.00;98.60;;;;;;5053523;28;20229;-67
2023/03/08 08:55:50;;;;;;;0.60;0.50;;;6.00;98.30;;;;;;5053515;28;20178;-67
2023/03/08 08:58:16;;;;;;;0.40;0.40;;;6.10;98.30;;;;;;5035620;28;20548;-67
2023/03/08 09:00:43;;;;;;;0.60;0.60;;;6.10;98.10;;;;;;5053145;28;20433;-67
2023/03/08 09:03:09;;;;;;;1.48;0.95;;;6.10;98.10;;;;;;5053152;28;20393;-68
2023/03/08 09:05:38;;;;;;;1.52;0.82;;;6.10;98.20;;;;;;5053710;28;20206;-67
2023/03/08 09:08:05;;;;;;;1.25;0.73;;;6.00;98.20;;;;;;5053309;28;20214;-67
2023/03/08 09:10:32;;;;;;;0.57;0.57;;;5.90;98.30;;;;;;5053135;28;20194;-67
2023/03/08 09:12:59;;;;;;;0.82;0.82;;;5.90;98.80;;;;;;5053326;28;20163;-67
2023/03/08 09:15:25;;;;;;;0.30;0.30;;;6.00;99.00;;;;;;5053180;28;20227;-67
2023/03/08 09:17:51;;;;;;;3.03;1.58;;;6.00;98.70;;;;;;5053266;28;20563;-67
2023/03/08 09:20:17;;;;;;;0.40;0.40;;;6.00;98.70;;;;;;5052521;28;20225;-67
2023/03/08 09:22:43;;;;;;;0.95;0.95;;;6.00;98.90;;;;;;5053014;28;20396;-67
2023/03/08 09:25:10;;;;;;;0.47;0.47;;;6.00;98.90;;;;;;5052947;28;20792;-68
2023/03/08 09:27:37;;;;;;;3.75;1.42;;;6.10;99.00;;;;;;5053196;28;20176;-67
2023/03/08 09:30:04;;;;;;;0.65;0.65;;;6.10;99.10;;;;;;5053073;28;20579;-67
2023/03/08 09:32:32;;;;;;;0.70;0.70;;;6.00;99.10;;;;;;5052883;28;20171;-67
2023/03/08 09:34:57;;;;;;;1.73;0.88;;;6.10;99.40;;;;;;5052803;28;20702;-67
2023/03/08 09:37:23;;;;;;;0.40;0.40;;;6.10;99.40;;;;;;5053573;28;20167;-67
2023/03/08 09:39:52;;;;;;;0.50;0.50;;;6.10;99.40;;;;;;5052982;28;20191;-67
2023/03/08 09:42:31;;;;;;;0.60;0.60;;;6.10;99.60;;;;;;5052949;28;20241;-68
2023/03/08 09:45:18;;;;;;;1.75;0.82;;;6.10;99.80;;;;;;5052632;28;20203;-67
2023/03/08 09:47:58;;;;;;;1.38;0.82;;;6.10;99.90;;;;;;5053085;28;20182;-67
2023/03/08 09:50:29;;;;;;;0.50;0.50;;;6.10;99.90;;;;;;5052963;28;20191;-67
2023/03/08 09:53:08;;;;;;;0.50;0.50;;;6.20;99.90;;;;;;5052861;28;20147;-67
2023/03/08 09:55:37;;;;;;;1.25;0.90;;;6.30;99.90;;;;;;5053032;28;20196;-67
2023/03/08 09:58:33;;;;;;;0.63;0.63;;;6.20;99.90;;;;;;5053043;28;20174;-68
2023/03/08 10:01:30;;;;;;;0.40;0.40;;;6.20;99.90;;;;;;5052692;28;20261;-67
2023/03/08 10:04:14;;;;;;;0.70;0.70;;;6.30;99.90;;;;;;5052547;28;20652;-68
2023/03/08 10:06:58;;;;;;;0.55;0.55;;;6.40;99.90;;;;;;5052823;28;20200;-67
2023/03/08 10:09:26;;;;;;;0.40;0.40;;;6.50;99.90;;;;;;5052677;28;20251;-67
2023/03/08 10:12:18;;;;;;;0.65;0.65;;;6.50;99.90;;;;;;5034776;28;20179;-67
2023/03/08 10:15:00;;;;;;;0.50;0.50;;;6.50;99.90;;;;;;5052517;28;20203;-68
2023/03/08 10:17:39;;;;;;;2.47;1.52;;;6.50;99.90;;;;;;5052824;28;20256;-68
2023/03/08 10:20:12;;;;;;;0.68;0.68;;;6.60;99.90;;;;;;5052757;28;20223;-68
2023/03/08 10:22:41;;;;;;;0.40;0.40;;;6.60;99.90;;;;;;5052560;28;20179;-68
2023/03/08 10:25:23;;;;;;;0.60;0.60;;;6.60;99.90;;;;;;5052204;28;20225;-68
2023/03/08 10:27:53;;;;;;;0.40;0.40;;;6.70;99.90;;;;;;5034789;28;20562;-67
2023/03/08 10:30:21;;;;;;;0.60;0.60;;;6.80;99.90;;;;;;5052586;28;20188;-68
2023/03/08 10:32:50;;;;;;;0.60;0.60;;;6.90;99.90;;;;;;5054563;28;20164;-67
2023/03/08 10:35:28;;;;;;;0.80;0.80;;;6.90;99.90;;;;;;5055964;28;20173;-68
2023/03/08 10:37:54;;;;;;;0.40;0.40;;;7.00;99.90;;;;;;5056242;28;20184;-67
2023/03/08 10:40:21;;;;;;;0.50;0.40;;;7.10;99.90;;;;;;5055973;28;20199;-68
2023/03/08 10:43:04;;;;;;;3.28;1.95;;;7.10;99.90;;;;;;5055963;28;20168;-68
2023/03/08 10:45:30;;;;;;;2.20;2.10;;;7.20;99.90;;;;;;5055842;28;20285;-68
2023/03/08 10:48:05;;;;;;;0.40;0.40;;;7.30;99.90;;;;;;5055964;28;20172;-67
2023/03/08 10:50:36;;;;;;;1.15;0.73;;;7.40;99.90;;;;;;5055707;28;20191;-67
2023/03/08 10:53:19;;;;;;;0.40;0.40;;;7.40;99.90;;;;;;5055842;28;20165;-68
2023/03/08 10:55:50;;;;;;;0.75;0.75;;;7.30;99.90;;;;;;5055838;28;20187;-68
2023/03/08 10:58:37;;;;;;;1.38;1.38;;;7.30;99.90;;;;;;5055608;28;20576;-67
2023/03/08 11:01:06;;;;;;;1.50;0.70;;;7.40;99.90;;;;;;5055535;28;20207;-67
2023/03/08 11:03:32;;;;;;;0.50;0.50;;;7.50;99.90;;;;;;5055418;28;20177;-68
2023/03/08 11:05:59;;;;;;;12.27;7.72;;;7.50;99.90;;;;;;5037620;28;20335;-68
2023/03/08 11:08:29;;;;;;;14.63;3.97;;;7.60;99.90;;;;;;5055553;28;20182;-67
2023/03/08 11:11:02;;;;;;;3.83;3.53;;;7.70;99.90;;;;;;5055308;28;20607;-67
2023/03/08 11:13:40;;;;;;;0.50;0.50;;;7.70;99.90;;;;;;5055187;28;20173;-68
2023/03/08 11:16:27;;;;;;;0.65;0.65;;;7.60;99.90;;;;;;5055441;28;20177;-68
2023/03/08 11:19:20;;;;;;;0.40;0.40;;;7.60;99.90;;;;;;5055237;28;20239;-68
2023/03/08 11:22:23;;;;;;;0.50;0.50;;;7.60;99.90;;;;;;5055215;28;20168;-67
2023/03/08 11:25:14;;;;;;;0.60;0.50;;;7.70;99.90;;;;;;5054813;28;20195;-68
2023/03/08 11:27:55;;;;;;;0.40;0.40;;;7.80;99.90;;;;;;5055305;28;20191;-67
2023/03/08 11:30:45;;;;;;;0.38;0.38;;;7.70;99.90;;;;;;5055247;28;20193;-68
2023/03/08 11:33:23;;;;;;;0.40;0.40;;;7.70;99.90;;;;;;5054809;28;20158;-68
2023/03/08 11:36:01;;;;;;;0.50;0.50;;;7.80;99.90;;;;;;5055163;28;20184;-68
2023/03/08 11:38:30;;;;;;;0.50;0.50;;;7.80;99.90;;;;;;5055110;28;20303;-67
2023/03/08 11:41:33;;;;;;;0.38;0.38;;;7.90;99.90;;;;;;5054715;28;20211;-67
2023/03/08 11:44:29;;;;;;;0.40;0.40;;;7.80;99.90;;;;;;5053956;28;20259;-68
2023/03/08 11:47:17;;;;;;;0.40;0.40;;;7.70;99.90;;;;;;5054755;28;20197;-67
2023/03/08 11:50:15;;;;;;;0.40;0.40;;;7.80;99.90;;;;;;5054721;28;20615;-68
2023/03/08 11:53:07;;;;;;;0.45;0.45;;;7.80;99.90;;;;;;5054674;28;20182;-68
2023/03/08 11:55:54;;;;;;;0.30;0.30;;;7.70;99.90;;;;;;5054644;28;20177;-70
2023/03/08 11:58:32;;;;;;;0.40;0.40;;;7.80;99.90;;;;;;5055088;28;20271;-68
2023/03/08 12:01:23;;;;;;;0.30;0.30;;;7.90;99.90;;;;;;5036000;28;20266;-71
2023/03/08 12:03:54;;;;;;;0.40;0.40;;;7.90;99.90;;;;;;5054561;28;20611;-71
2023/03/08 12:06:30;;;;;;;0.30;0.30;;;8.00;99.90;;;;;;5054760;28;20232;-71
2023/03/08 12:09:06;;;;;;;0.30;0.30;;;8.00;99.90;;;;;;5036526;28;20661;-71
2023/03/08 12:11:39;;;;;;;0.65;0.65;;;8.00;99.90;;;;;;5054506;28;20190;-71
2023/03/08 12:14:25;;;;;;;0.30;0.30;;;8.00;99.90;;;;;;5054164;28;20179;-71
2023/03/08 12:17:14;;;;;;;0.65;0.65;;;8.20;99.90;;;;;;5054799;28;20170;-70
2023/03/08 12:19:41;;;;;;;0.50;0.50;;;8.30;99.90;;;;;;5053416;28;20213;-70
2023/03/08 12:22:32;;;;;;;0.43;0.43;;;8.50;99.90;;;;;;5054513;28;20177;-70
2023/03/08 12:25:36;;;;;;;0.57;0.57;;;8.50;99.90;;;;;;5036050;28;20177;-69
2023/03/08 12:28:12;;;;;;;0.30;0.30;;;8.60;99.90;;;;;;5052207;28;20180;-71
2023/03/08 12:30:37;;;;;;;0.40;0.40;;;8.40;99.90;;;;;;5053535;28;20190;-70
2023/03/08 12:33:05;;;;;;;0.80;0.80;;;8.40;99.90;;;;;;5054276;28;20193;-71
2023/03/08 12:35:33;;;;;;;0.30;0.30;;;8.50;99.90;;;;;;5054303;28;20169;-71
2023/03/08 12:38:01;;;;;;;0.85;0.85;;;8.50;99.90;;;;;;5054435;28;20638;-71
2023/03/08 12:40:38;;;;;;;0.50;0.50;;;8.40;99.90;;;;;;5053926;28;20228;-71
2023/03/08 12:43:27;;;;;;;0.95;0.95;;;8.40;99.90;;;;;;5036136;28;20184;-71
2023/03/08 12:45:58;;;;;;;0.30;0.30;;;8.60;99.90;;;;;;5054138;28;20205;-71
2023/03/08 12:48:45;;;;;;;0.90;0.77;;;8.70;99.90;;;;;;5053691;28;20166;-71
2023/03/08 12:51:10;;;;;;;0.40;0.40;;;8.70;99.90;;;;;;5053498;28;20571;-71
2023/03/08 12:53:54;;;;;;;0.30;0.30;;;8.60;99.90;;;;;;5035795;28;20172;-71
2023/03/08 12:56:36;;;;;;;0.75;0.75;;;8.50;99.90;;;;;;5035334;28;20178;-71
2023/03/08 12:59:13;;;;;;;0.30;0.30;;;8.60;99.90;;;;;;5053811;28;20204;-71
2023/03/08 13:01:42;;;;;;;0.40;0.40;;;8.70;99.90;;;;;;5034711;28;20212;-72
2023/03/08 13:04:34;;;;;;;0.50;0.50;;;8.80;99.90;;;;;;5053292;28;20186;-71
2023/03/08 13:07:08;;;;;;;0.30;0.30;;;8.80;99.90;;;;;;5053890;28;20337;-71
2023/03/08 13:09:40;;;;;;;0.40;0.40;;;8.80;99.90;;;;;;5035388;28;20192;-71
2023/03/08 13:12:08;;;;;;;0.40;0.40;;;8.70;99.90;;;;;;5053650;28;20170;-71